Time;durP1;ratioP1;P1;durP2;ratioP2;P2;SDS_P1;SDS_P2;PMS_P1;PMS_P2;Temp;Humidity;BMP_temperature;BMP_pressure;BME280_temperature;BME280_humidity;BME280_pressure;Samples;Min_cycle;Max_cycle;Signal;HPM_P1;HPM_P2
2021/03/17 00:01:45;;;;;;;10.57;6.63;;;5.40;61.80;;;;;;5098573;28;38872;-79
2021/03/17 00:04:30;;;;;;;9.03;5.50;;;5.40;61.20;;;;;;5089764;28;40828;-78
2021/03/17 00:07:16;;;;;;;7.50;5.80;;;5.50;61.40;;;;;;5081201;28;39414;-78
2021/03/17 00:10:03;;;;;;;7.77;5.53;;;5.40;61.20;;;;;;5084550;28;38646;-78
2021/03/17 00:12:57;;;;;;;8.20;5.70;;;5.40;61.20;;;;;;5087778;28;37232;-78
2021/03/17 00:15:44;;;;;;;7.43;6.63;;;5.40;61.30;;;;;;5090145;28;40028;-78
2021/03/17 00:18:29;;;;;;;11.43;6.30;;;5.40;61.00;;;;;;5088762;28;39731;-78
2021/03/17 00:21:15;;;;;;;10.57;5.73;;;5.40;61.20;;;;;;5082468;28;39411;-77
2021/03/17 00:24:01;;;;;;;7.13;6.17;;;5.40;61.10;;;;;;5087141;28;38222;-77
2021/03/17 00:26:47;;;;;;;9.03;6.70;;;5.40;61.10;;;;;;5081515;28;40920;-77
2021/03/17 00:29:33;;;;;;;11.13;7.27;;;5.40;61.00;;;;;;5077372;28;40597;-78
2021/03/17 00:32:18;;;;;;;7.30;5.70;;;5.40;60.90;;;;;;5088195;28;39587;-78
2021/03/17 00:35:05;;;;;;;8.20;6.70;;;5.50;60.80;;;;;;5089212;28;37822;-77
2021/03/17 00:37:50;;;;;;;7.03;6.30;;;5.50;60.70;;;;;;5085623;28;40607;-77
2021/03/17 00:40:37;;;;;;;9.20;5.40;;;5.50;60.70;;;;;;5078873;28;39876;-78
2021/03/17 00:43:23;;;;;;;6.10;5.37;;;5.40;60.40;;;;;;5083311;28;38446;-78
2021/03/17 00:46:09;;;;;;;6.83;4.87;;;5.50;60.40;;;;;;5081651;28;37392;-79
2021/03/17 00:48:36;;;;;;;11.80;5.33;;;5.40;60.00;;;;;;5093717;28;40039;-78
2021/03/17 00:51:15;;;;;;;8.53;5.47;;;5.40;60.50;;;;;;5103949;28;37555;-77
2021/03/17 00:54:01;;;;;;;5.80;4.17;;;5.30;59.70;;;;;;5085284;28;38901;-77
2021/03/17 00:56:31;;;;;;;6.47;4.73;;;5.30;59.80;;;;;;5105304;28;36973;-77
2021/03/17 00:58:59;;;;;;;8.43;5.10;;;5.30;60.00;;;;;;5082405;28;38529;-77
2021/03/17 01:01:27;;;;;;;5.10;4.50;;;5.30;60.00;;;;;;5090930;28;39460;-77
2021/03/17 01:03:54;;;;;;;6.47;4.50;;;5.30;60.00;;;;;;5091949;28;38036;-77
2021/03/17 01:06:22;;;;;;;5.33;4.20;;;5.40;59.80;;;;;;5095337;28;37905;-77
2021/03/17 01:08:49;;;;;;;5.43;4.53;;;5.40;59.60;;;;;;5109530;28;39200;-77
2021/03/17 01:11:16;;;;;;;5.20;4.50;;;5.50;59.50;;;;;;5092617;28;39090;-77
2021/03/17 01:13:43;;;;;;;4.10;3.50;;;5.50;59.30;;;;;;5092386;28;37964;-77
2021/03/17 01:16:14;;;;;;;4.70;3.60;;;5.40;59.30;;;;;;5106740;28;36138;-77
2021/03/17 01:18:41;;;;;;;7.13;4.10;;;5.50;59.10;;;;;;5079083;28;40233;-77
2021/03/17 01:21:08;;;;;;;4.10;3.70;;;5.60;58.80;;;;;;5074928;28;39049;-77
2021/03/17 01:23:35;;;;;;;4.63;3.67;;;5.50;58.50;;;;;;5075840;28;37652;-77
2021/03/17 01:26:03;;;;;;;6.63;4.17;;;5.40;58.60;;;;;;5092104;28;35791;-77
2021/03/17 01:28:30;;;;;;;4.20;3.27;;;5.40;58.80;;;;;;5080353;28;39309;-77
2021/03/17 01:30:59;;;;;;;5.13;3.83;;;5.30;58.80;;;;;;5080801;28;38991;-77
2021/03/17 01:33:28;;;;;;;4.50;3.60;;;5.30;59.20;;;;;;5110751;28;36501;-78
2021/03/17 01:35:58;;;;;;;7.17;4.80;;;5.30;59.30;;;;;;5095581;28;36612;-79
2021/03/17 01:38:26;;;;;;;6.80;5.13;;;5.30;59.40;;;;;;5089530;28;39602;-77
2021/03/17 01:40:54;;;;;;;6.13;4.77;;;5.30;59.60;;;;;;5093889;28;37667;-77
2021/03/17 01:43:23;;;;;;;5.40;4.33;;;5.30;59.40;;;;;;5085380;28;37902;-76
2021/03/17 01:45:52;;;;;;;6.20;4.83;;;5.30;59.30;;;;;;5110648;28;36689;-78
2021/03/17 01:48:20;;;;;;;6.40;4.37;;;5.40;59.20;;;;;;5094745;28;40483;-78
2021/03/17 01:50:52;;;;;;;5.83;4.10;;;5.40;59.40;;;;;;5110141;28;37922;-77
2021/03/17 01:53:24;;;;;;;5.80;4.47;;;5.30;59.40;;;;;;5084491;28;37732;-78
2021/03/17 01:55:51;;;;;;;5.13;4.03;;;5.30;59.30;;;;;;5072328;28;37840;-77
2021/03/17 01:58:20;;;;;;;6.20;4.23;;;5.30;59.40;;;;;;5095051;28;39370;-77
2021/03/17 02:00:47;;;;;;;6.07;4.20;;;5.30;59.30;;;;;;5094274;28;39214;-77
2021/03/17 02:03:15;;;;;;;7.10;4.83;;;5.30;59.40;;;;;;5093222;28;37926;-76
2021/03/17 02:05:43;;;;;;;4.93;4.00;;;5.40;59.30;;;;;;5084187;28;37437;-77
2021/03/17 02:08:15;;;;;;;6.30;4.63;;;5.40;59.30;;;;;;5091673;28;39391;-79
2021/03/17 02:10:42;;;;;;;6.80;4.03;;;5.40;58.90;;;;;;5091185;28;39695;-77
2021/03/17 02:13:22;;;;;;;5.17;4.13;;;5.30;59.10;;;;;;5093946;28;38658;-78
2021/03/17 02:15:57;;;;;;;6.63;4.30;;;5.40;59.20;;;;;;5089842;28;37197;-78
2021/03/17 02:18:35;;;;;;;5.63;4.33;;;5.40;58.90;;;;;;5090138;28;40365;-78
2021/03/17 02:21:17;;;;;;;5.63;4.20;;;5.40;58.90;;;;;;5100063;28;38280;-78
2021/03/17 02:24:08;;;;;;;6.13;4.50;;;5.30;58.80;;;;;;5093795;28;37509;-77
2021/03/17 02:27:18;;;;;;;6.13;5.10;;;5.30;59.00;;;;;;5092738;28;36969;-77
2021/03/17 02:30:19;;;;;;;7.20;4.57;;;5.30;59.00;;;;;;5092554;28;40467;-78
2021/03/17 02:33:23;;;;;;;5.27;4.50;;;5.30;59.50;;;;;;5092562;28;40164;-78
2021/03/17 02:35:55;;;;;;;5.17;4.03;;;5.20;60.00;;;;;;5081180;28;38150;-78
2021/03/17 02:38:24;;;;;;;4.30;3.90;;;5.00;60.40;;;;;;5092415;28;37393;-77
2021/03/17 02:40:54;;;;;;;6.07;4.60;;;4.90;61.20;;;;;;5093081;28;38285;-78
2021/03/17 02:43:28;;;;;;;5.70;4.10;;;4.80;60.90;;;;;;5092452;28;38689;-78
2021/03/17 02:46:00;;;;;;;8.53;4.77;;;4.70;61.10;;;;;;5094013;28;37547;-78
2021/03/17 02:48:30;;;;;;;7.50;5.60;;;4.70;61.50;;;;;;5092539;28;37786;-78
2021/03/17 02:51:04;;;;;;;6.13;5.07;;;4.70;61.70;;;;;;5093739;28;38144;-77
2021/03/17 02:53:35;;;;;;;8.43;6.33;;;4.70;61.90;;;;;;5092250;28;39007;-78
2021/03/17 02:56:09;;;;;;;11.87;6.73;;;4.70;62.00;;;;;;5092295;28;36863;-78
2021/03/17 02:58:38;;;;;;;7.93;5.93;;;4.70;62.00;;;;;;5105393;28;35696;-78
2021/03/17 03:01:07;;;;;;;7.20;5.67;;;4.80;62.10;;;;;;5100174;28;38522;-77
2021/03/17 03:03:37;;;;;;;7.47;5.93;;;4.80;62.00;;;;;;5089017;28;38440;-77
2021/03/17 03:06:06;;;;;;;6.83;4.43;;;4.80;62.20;;;;;;5086168;28;38814;-78
2021/03/17 03:08:35;;;;;;;6.60;5.43;;;4.90;62.00;;;;;;5106558;28;37833;-77
2021/03/17 03:11:04;;;;;;;6.60;5.23;;;5.00;61.80;;;;;;5102840;28;39989;-78
2021/03/17 03:13:33;;;;;;;9.57;5.77;;;5.00;61.60;;;;;;5100891;28;39810;-78
2021/03/17 03:16:00;;;;;;;7.60;5.50;;;5.00;61.30;;;;;;5101546;28;38869;-78
2021/03/17 03:18:29;;;;;;;8.20;5.63;;;5.00;61.20;;;;;;5102750;28;37336;-77
2021/03/17 03:20:57;;;;;;;6.50;5.60;;;5.00;60.90;;;;;;5093828;28;40594;-78
2021/03/17 03:23:24;;;;;;;9.17;5.57;;;4.90;60.80;;;;;;5088731;28;39187;-78
2021/03/17 03:25:52;;;;;;;5.57;5.07;;;4.90;60.70;;;;;;5081771;28;20563;-79
2021/03/17 03:28:23;;;;;;;6.90;5.50;;;5.00;60.90;;;;;;5096841;28;36789;-78
2021/03/17 03:30:52;;;;;;;5.53;4.47;;;5.10;60.50;;;;;;5093731;28;39805;-78
2021/03/17 03:33:21;;;;;;;8.53;4.90;;;5.00;60.00;;;;;;5101911;28;39624;-78
2021/03/17 03:35:51;;;;;;;6.17;4.40;;;5.00;60.00;;;;;;5093627;28;38193;-78
2021/03/17 03:38:20;;;;;;;7.13;5.00;;;5.10;59.80;;;;;;5085971;28;37094;-78
2021/03/17 03:40:47;;;;;;;7.83;5.03;;;5.20;59.70;;;;;;5093531;28;39480;-79
2021/03/17 03:43:16;;;;;;;7.03;5.43;;;5.20;59.60;;;;;;5103933;28;37812;-78
2021/03/17 03:45:43;;;;;;;6.90;5.30;;;5.20;59.50;;;;;;5088685;28;38445;-78
2021/03/17 03:48:11;;;;;;;7.27;5.97;;;5.20;59.00;;;;;;5109049;27;35925;-78
2021/03/17 03:50:41;;;;;;;9.33;6.30;;;5.20;59.20;;;;;;5099024;28;40625;-77
2021/03/17 03:53:39;;;;;;;7.23;5.50;;;5.10;59.10;;;;;;5101522;28;39341;-77
2021/03/17 03:56:09;;;;;;;7.60;5.93;;;5.10;58.90;;;;;;5102689;28;36795;-78
2021/03/17 03:58:42;;;;;;;6.30;5.67;;;5.10;59.00;;;;;;5098002;28;37061;-78
2021/03/17 04:01:11;;;;;;;7.90;5.80;;;5.10;59.10;;;;;;5096789;28;39732;-77
2021/03/17 04:03:42;;;;;;;7.70;5.67;;;5.10;59.20;;;;;;5090542;28;37736;-78
2021/03/17 04:06:11;;;;;;;6.70;5.07;;;5.10;59.10;;;;;;5095649;28;36603;-78
2021/03/17 04:08:43;;;;;;;6.30;5.70;;;5.20;58.90;;;;;;5107623;28;35845;-78
2021/03/17 04:11:12;;;;;;;6.40;5.60;;;5.10;58.80;;;;;;5091880;28;40594;-78
2021/03/17 04:13:43;;;;;;;6.97;5.67;;;5.10;59.00;;;;;;5096261;27;38222;-78
2021/03/17 04:16:12;;;;;;;6.50;5.70;;;5.20;59.20;;;;;;5107733;28;34729;-77
2021/03/17 04:18:42;;;;;;;9.40;6.67;;;5.20;59.20;;;;;;5111676;27;35914;-78
2021/03/17 04:21:16;;;;;;;6.83;5.20;;;5.30;59.00;;;;;;5107003;28;38467;-77
2021/03/17 04:23:45;;;;;;;7.90;5.50;;;5.20;59.00;;;;;;5099716;28;39299;-77
2021/03/17 04:26:13;;;;;;;6.70;5.27;;;5.20;59.00;;;;;;5104283;28;38119;-77
2021/03/17 04:28:43;;;;;;;6.03;5.27;;;5.10;59.10;;;;;;5100780;28;37223;-77
2021/03/17 04:31:11;;;;;;;7.10;6.00;;;5.10;59.20;;;;;;5095030;28;38827;-78
2021/03/17 04:33:38;;;;;;;7.83;5.63;;;5.10;59.30;;;;;;5100020;28;38853;-78
2021/03/17 04:36:07;;;;;;;8.50;6.17;;;5.10;59.40;;;;;;5094942;28;36671;-77
2021/03/17 04:38:37;;;;;;;8.50;5.73;;;5.10;59.40;;;;;;5103435;28;38383;-77
2021/03/17 04:41:05;;;;;;;7.93;5.73;;;5.20;59.30;;;;;;5097811;28;39559;-78
2021/03/17 04:43:32;;;;;;;8.23;6.03;;;5.20;59.40;;;;;;5106013;28;39244;-78
2021/03/17 04:46:01;;;;;;;9.47;6.60;;;5.20;59.30;;;;;;5095782;28;37872;-78
2021/03/17 04:48:29;;;;;;;8.70;7.17;;;5.20;59.30;;;;;;5106840;28;37811;-78
2021/03/17 04:50:58;;;;;;;10.50;7.33;;;5.20;59.30;;;;;;5101827;28;39670;-78
2021/03/17 04:53:25;;;;;;;9.50;7.10;;;5.20;59.40;;;;;;5094477;28;39006;-77
2021/03/17 04:55:52;;;;;;;10.37;7.50;;;5.10;59.60;;;;;;5096609;28;38237;-76
2021/03/17 04:58:24;;;;;;;9.87;7.17;;;5.10;59.50;;;;;;5101889;28;36924;-77
2021/03/17 05:00:54;;;;;;;9.30;7.30;;;5.10;59.30;;;;;;5098849;28;38589;-77
2021/03/17 05:03:24;;;;;;;10.73;8.40;;;5.10;59.20;;;;;;5090934;28;39250;-77
2021/03/17 05:05:54;;;;;;;14.87;10.97;;;5.10;59.30;;;;;;5095577;28;38688;-77
2021/03/17 05:08:22;;;;;;;14.17;10.90;;;5.10;59.10;;;;;;5095539;28;36694;-78
2021/03/17 05:10:50;;;;;;;14.90;11.00;;;5.10;59.20;;;;;;5096097;28;38262;-78
2021/03/17 05:13:17;;;;;;;13.07;10.17;;;5.00;59.10;;;;;;5098767;28;37618;-78
2021/03/17 05:15:47;;;;;;;11.67;9.50;;;5.00;59.40;;;;;;5094658;28;38298;-78
2021/03/17 05:18:17;;;;;;;12.50;9.10;;;5.00;59.40;;;;;;5095613;28;37356;-78
2021/03/17 05:20:47;;;;;;;10.53;8.37;;;5.00;59.30;;;;;;5088360;28;39509;-77
2021/03/17 05:23:17;;;;;;;12.50;8.33;;;5.00;59.50;;;;;;5082922;28;38813;-78
2021/03/17 05:25:47;;;;;;;11.07;8.57;;;5.00;59.60;;;;;;5096047;28;38053;-78
2021/03/17 05:28:16;;;;;;;10.83;8.03;;;5.00;59.60;;;;;;5089131;28;36825;-78
2021/03/17 05:30:49;;;;;;;10.53;7.47;;;5.00;59.60;;;;;;5111371;27;39328;-78
2021/03/17 05:33:21;;;;;;;9.60;7.63;;;5.00;59.60;;;;;;5099920;28;40066;-78
2021/03/17 05:35:48;;;;;;;9.53;8.00;;;5.00;59.50;;;;;;5092451;28;38933;-78
2021/03/17 05:38:18;;;;;;;11.80;8.50;;;4.90;59.50;;;;;;5099820;28;37866;-78
2021/03/17 05:40:45;;;;;;;10.73;8.40;;;4.90;59.70;;;;;;5104995;28;38268;-78
2021/03/17 05:43:12;;;;;;;10.40;7.73;;;4.90;59.70;;;;;;5095168;28;38815;-78
2021/03/17 05:45:39;;;;;;;11.50;9.03;;;4.90;59.90;;;;;;5106233;28;36919;-78
2021/03/17 05:48:10;;;;;;;14.77;10.67;;;4.90;59.90;;;;;;5106580;28;38373;-78
2021/03/17 05:50:40;;;;;;;12.67;8.90;;;5.00;60.70;;;;;;5098974;28;39902;-78
2021/03/17 05:53:08;;;;;;;11.57;8.00;;;5.00;59.90;;;;;;5105236;28;39614;-78
2021/03/17 05:55:38;;;;;;;15.73;8.50;;;5.00;59.80;;;;;;5103661;28;38265;-78
2021/03/17 05:58:06;;;;;;;10.60;8.20;;;5.10;59.60;;;;;;5081173;28;37349;-78
2021/03/17 06:00:33;;;;;;;10.70;9.03;;;5.00;59.40;;;;;;5102169;28;39631;-78
2021/03/17 06:03:03;;;;;;;13.00;9.20;;;5.00;59.60;;;;;;5094199;28;37715;-78
2021/03/17 06:05:31;;;;;;;11.37;9.07;;;5.00;59.60;;;;;;5094627;28;38307;-78
2021/03/17 06:08:03;;;;;;;13.33;9.60;;;5.00;59.40;;;;;;5094877;28;37289;-77
2021/03/17 06:10:31;;;;;;;11.53;9.10;;;5.10;59.40;;;;;;5094495;28;40427;-77
2021/03/17 06:13:00;;;;;;;14.30;10.10;;;5.10;59.50;;;;;;5094672;28;39167;-77
2021/03/17 06:15:28;;;;;;;13.73;10.13;;;5.10;59.30;;;;;;5100117;28;37832;-77
2021/03/17 06:17:58;;;;;;;12.23;9.73;;;5.10;59.30;;;;;;5097942;28;36535;-77
2021/03/17 06:20:26;;;;;;;13.53;10.47;;;5.10;59.40;;;;;;5078681;28;39480;-77
2021/03/17 06:22:53;;;;;;;12.17;9.70;;;5.20;59.40;;;;;;5095876;27;37806;-77
2021/03/17 06:25:24;;;;;;;14.60;10.80;;;5.30;59.40;;;;;;5092636;28;36770;-78
2021/03/17 06:27:52;;;;;;;15.20;11.30;;;5.30;59.20;;;;;;5094825;28;36207;-78
2021/03/17 06:30:20;;;;;;;15.93;11.23;;;5.30;59.20;;;;;;5093758;28;38143;-78
2021/03/17 06:32:49;;;;;;;14.40;9.90;;;5.40;59.00;;;;;;5092386;28;37731;-78
2021/03/17 06:35:19;;;;;;;14.70;10.57;;;5.50;58.80;;;;;;5103028;28;36846;-77
2021/03/17 06:37:46;;;;;;;13.27;10.37;;;5.40;58.90;;;;;;5110239;27;36424;-77
2021/03/17 06:40:28;;;;;;;15.60;11.20;;;5.40;58.90;;;;;;5080615;28;40209;-77
2021/03/17 06:43:04;;;;;;;14.10;10.37;;;5.30;58.60;;;;;;5090961;28;38791;-77
2021/03/17 06:45:37;;;;;;;14.60;10.60;;;5.30;58.80;;;;;;5093164;28;37924;-77
2021/03/17 06:48:24;;;;;;;16.40;11.13;;;5.30;59.40;;;;;;5091541;27;37874;-78
2021/03/17 06:51:12;;;;;;;16.00;12.23;;;5.30;59.90;;;;;;5098630;28;39800;-77
2021/03/17 06:53:43;;;;;;;14.63;11.23;;;5.20;60.10;;;;;;5100481;28;37640;-78
2021/03/17 06:56:22;;;;;;;18.43;11.90;;;5.10;60.20;;;;;;5093911;28;38332;-77
2021/03/17 06:58:50;;;;;;;16.27;11.73;;;5.10;60.90;;;;;;5097276;28;38085;-77
2021/03/17 07:01:40;;;;;;;15.60;9.97;;;5.10;61.40;;;;;;5093749;27;38451;-77
2021/03/17 07:04:08;;;;;;;11.90;9.33;;;5.00;61.30;;;;;;5087546;28;39902;-77
2021/03/17 07:06:37;;;;;;;15.03;10.80;;;4.90;61.60;;;;;;5103280;28;38062;-77
2021/03/17 07:09:15;;;;;;;13.53;9.50;;;4.90;61.70;;;;;;5106110;28;36913;-76
2021/03/17 07:11:45;;;;;;;13.03;9.20;;;4.90;61.80;;;;;;5092662;28;38626;-77
2021/03/17 07:14:12;;;;;;;10.30;7.07;;;4.90;62.10;;;;;;5093546;28;40086;-77
2021/03/17 07:16:46;;;;;;;11.10;7.47;;;4.80;61.50;;;;;;5093728;28;38439;-77
2021/03/17 07:19:31;;;;;;;10.77;7.30;;;4.70;61.30;;;;;;5093748;28;36922;-77
2021/03/17 07:22:06;;;;;;;10.80;7.33;;;4.80;61.50;;;;;;5109182;27;38384;-76
2021/03/17 07:24:33;;;;;;;10.17;7.77;;;4.80;61.80;;;;;;5093552;28;38801;-77
2021/03/17 07:27:15;;;;;;;11.07;7.93;;;4.90;61.90;;;;;;5105916;27;37143;-76
2021/03/17 07:29:42;;;;;;;16.80;9.40;;;5.00;62.60;;;;;;5088852;28;37959;-77
2021/03/17 07:32:13;;;;;;;14.67;8.33;;;5.10;61.60;;;;;;5091118;28;39759;-76
2021/03/17 07:34:40;;;;;;;11.50;8.63;;;5.20;61.90;;;;;;5093324;28;39082;-76
2021/03/17 07:37:09;;;;;;;11.00;8.30;;;5.30;61.70;;;;;;5093644;28;37910;-77
2021/03/17 07:39:38;;;;;;;13.77;8.90;;;5.40;61.30;;;;;;5096713;28;36684;-77
2021/03/17 07:42:07;;;;;;;14.00;10.10;;;5.50;60.60;;;;;;5092378;28;39539;-77
2021/03/17 07:44:36;;;;;;;11.90;9.23;;;5.50;59.80;;;;;;5092463;28;37738;-77
2021/03/17 07:47:05;;;;;;;10.43;8.90;;;5.50;60.10;;;;;;5078961;28;38658;-76
2021/03/17 07:49:34;;;;;;;15.90;11.13;;;5.50;60.10;;;;;;5081440;28;37241;-77
2021/03/17 07:52:02;;;;;;;13.93;10.70;;;5.60;60.20;;;;;;5092673;28;40231;-77
2021/03/17 07:55:02;;;;;;;20.33;9.70;;;5.70;59.80;;;;;;5096303;28;37836;-77
2021/03/17 07:57:56;;;;;;;13.37;10.27;;;5.80;59.40;;;;;;5093867;28;39145;-77
2021/03/17 08:00:25;;;;;;;14.87;10.33;;;6.00;59.40;;;;;;5095995;28;35720;-78
2021/03/17 08:02:53;;;;;;;19.73;10.20;;;6.20;59.00;;;;;;5095447;28;39486;-77
2021/03/17 08:05:20;;;;;;;15.60;11.27;;;6.30;57.50;;;;;;5095813;28;38471;-78
2021/03/17 08:07:48;;;;;;;16.03;10.67;;;6.50;56.50;;;;;;5096869;28;38838;-78
2021/03/17 08:10:15;;;;;;;13.43;10.57;;;6.60;56.40;;;;;;5096448;28;37445;-77
2021/03/17 08:12:43;;;;;;;14.07;9.67;;;6.90;56.60;;;;;;5096587;28;39813;-77
2021/03/17 08:15:13;;;;;;;12.43;9.27;;;7.00;56.10;;;;;;5094441;28;39052;-74
2021/03/17 08:17:41;;;;;;;14.90;9.20;;;7.10;55.30;;;;;;5090816;28;37885;-75
2021/03/17 08:20:20;;;;;;;11.50;9.50;;;6.90;54.10;;;;;;5086853;28;37106;-77
2021/03/17 08:22:49;;;;;;;12.97;10.43;;;7.20;55.20;;;;;;5099677;28;38580;-78
2021/03/17 08:25:35;;;;;;;12.53;8.90;;;7.50;55.20;;;;;;5089072;28;38928;-76
2021/03/17 08:28:19;;;;;;;13.63;10.00;;;7.80;54.00;;;;;;5080320;28;38417;-77
2021/03/17 08:30:47;;;;;;;11.40;8.73;;;8.00;53.00;;;;;;5095713;28;36130;-76
2021/03/17 08:33:31;;;;;;;11.60;8.40;;;8.20;52.10;;;;;;5096574;28;39601;-79
2021/03/17 08:36:09;;;;;;;10.33;8.67;;;8.40;52.00;;;;;;5081028;28;38757;-77
2021/03/17 08:38:54;;;;;;;14.00;9.57;;;8.60;51.00;;;;;;5111466;28;36671;-78
2021/03/17 08:41:52;;;;;;;9.43;8.03;;;8.90;51.10;;;;;;5091458;28;37882;-78
2021/03/17 08:44:26;;;;;;;9.70;8.03;;;9.10;49.80;;;;;;5095161;28;39975;-77
2021/03/17 08:46:55;;;;;;;9.30;8.30;;;9.30;49.50;;;;;;5110988;28;38190;-77
2021/03/17 08:49:32;;;;;;;14.30;8.40;;;9.70;49.30;;;;;;5092713;28;38176;-78
2021/03/17 08:52:15;;;;;;;12.73;8.90;;;10.60;48.30;;;;;;5088937;28;37922;-78
2021/03/17 08:54:56;;;;;;;14.73;8.67;;;11.90;45.70;;;;;;5086563;28;38293;-78
2021/03/17 08:57:24;;;;;;;10.70;7.80;;;12.70;41.60;;;;;;5119342;27;38314;-77
2021/03/17 08:59:52;;;;;;;10.77;8.90;;;13.20;39.60;;;;;;5091866;28;37087;-77
2021/03/17 09:02:53;;;;;;;9.07;8.17;;;13.50;39.10;;;;;;5089644;28;36961;-78
2021/03/17 09:05:23;;;;;;;8.30;7.03;;;15.10;40.30;;;;;;5086096;28;39352;-79
2021/03/17 09:08:06;;;;;;;8.03;7.23;;;18.20;33.90;;;;;;5094227;28;40365;-79
2021/03/17 09:10:44;;;;;;;7.13;6.40;;;21.10;29.70;;;;;;5094588;28;38568;-79
2021/03/17 09:13:37;;;;;;;7.40;5.90;;;22.30;27.70;;;;;;5092827;28;36409;-79
2021/03/17 09:16:09;;;;;;;6.07;5.20;;;23.50;26.00;;;;;;5085353;28;40605;-79
2021/03/17 09:19:13;;;;;;;6.00;5.20;;;23.40;23.10;;;;;;5106419;28;38836;-79
2021/03/17 09:21:43;;;;;;;6.40;5.80;;;22.80;25.80;;;;;;5091517;28;36598;-79
2021/03/17 09:24:28;;;;;;;8.17;5.87;;;23.30;24.70;;;;;;5095414;28;36337;-79
2021/03/17 09:27:00;;;;;;;8.00;5.37;;;23.50;24.20;;;;;;5093161;28;40313;-79
2021/03/17 09:29:27;;;;;;;9.00;5.30;;;24.20;22.90;;;;;;5091208;28;39526;-78
2021/03/17 09:31:55;;;;;;;5.67;5.17;;;23.30;22.50;;;;;;5092201;28;38626;-78
2021/03/17 09:34:26;;;;;;;5.13;4.67;;;22.70;22.90;;;;;;5081601;28;35254;-80
2021/03/17 09:37:04;;;;;;;4.83;4.17;;;23.10;22.40;;;;;;5089271;28;39657;-79
2021/03/17 09:39:32;;;;;;;5.40;4.90;;;22.80;21.40;;;;;;5090428;28;39029;-79
2021/03/17 09:41:59;;;;;;;5.87;4.70;;;21.60;21.20;;;;;;5092916;28;37713;-79
2021/03/17 09:44:28;;;;;;;7.20;4.93;;;20.20;21.90;;;;;;5093322;28;36796;-79
2021/03/17 09:46:55;;;;;;;4.60;4.10;;;18.50;23.20;;;;;;5098059;28;38515;-79
2021/03/17 09:49:24;;;;;;;6.37;4.90;;;17.80;25.00;;;;;;5092669;28;37933;-79
2021/03/17 09:51:53;;;;;;;4.90;4.40;;;17.00;24.90;;;;;;5095421;28;38214;-79
2021/03/17 09:54:27;;;;;;;6.40;5.27;;;16.80;25.30;;;;;;5080388;28;37949;-79
2021/03/17 09:56:55;;;;;;;4.63;3.80;;;16.70;26.60;;;;;;5090916;28;39531;-79
2021/03/17 09:59:27;;;;;;;6.33;5.10;;;16.10;26.60;;;;;;5093125;28;38990;-78
2021/03/17 10:01:57;;;;;;;4.13;3.73;;;15.30;28.10;;;;;;5093091;28;36426;-78
2021/03/17 10:04:26;;;;;;;5.50;3.80;;;14.30;27.90;;;;;;5094911;28;37054;-78
2021/03/17 10:06:57;;;;;;;4.53;3.90;;;13.60;28.00;;;;;;5088647;28;39733;-78
2021/03/17 10:09:31;;;;;;;4.80;3.67;;;13.10;28.50;;;;;;5103850;28;37835;-78
2021/03/17 10:12:04;;;;;;;5.60;4.30;;;12.70;29.30;;;;;;5094676;28;38598;-79
2021/03/17 10:14:32;;;;;;;7.30;4.43;;;12.30;29.30;;;;;;5088747;28;37678;-78
2021/03/17 10:17:01;;;;;;;7.60;3.50;;;11.90;29.30;;;;;;5094962;28;39895;-78
2021/03/17 10:19:28;;;;;;;5.53;2.77;;;11.50;29.30;;;;;;5093557;28;37978;-78
2021/03/17 10:21:59;;;;;;;2.60;2.40;;;11.20;29.50;;;;;;5093836;28;37756;-79
2021/03/17 10:24:39;;;;;;;4.40;2.40;;;11.00;29.30;;;;;;5093984;28;36215;-78
2021/03/17 10:27:08;;;;;;;4.80;2.43;;;11.00;28.70;;;;;;5111913;28;38326;-78
2021/03/17 10:29:36;;;;;;;6.20;2.63;;;11.20;29.00;;;;;;5094075;28;39583;-78
2021/03/17 10:32:08;;;;;;;3.10;2.60;;;11.50;29.80;;;;;;5110546;28;38196;-78
2021/03/17 10:34:38;;;;;;;3.53;2.30;;;11.90;29.50;;;;;;5087359;28;37248;-77
2021/03/17 10:37:05;;;;;;;2.50;2.07;;;12.40;27.50;;;;;;5090901;28;39667;-77
2021/03/17 10:39:35;;;;;;;4.30;2.30;;;12.60;27.00;;;;;;5084604;28;38617;-77
2021/03/17 10:42:16;;;;;;;4.30;2.97;;;12.70;26.30;;;;;;5083469;28;38331;-77
2021/03/17 10:44:43;;;;;;;3.63;2.43;;;13.10;26.80;;;;;;5082671;28;37219;-78
2021/03/17 10:47:11;;;;;;;3.10;2.37;;;14.00;27.90;;;;;;5089259;28;40773;-79
2021/03/17 10:49:45;;;;;;;3.13;2.70;;;14.70;26.50;;;;;;5094259;28;39311;-78
2021/03/17 10:52:13;;;;;;;4.80;3.10;;;15.10;25.50;;;;;;5090425;28;37905;-78
2021/03/17 10:54:42;;;;;;;5.10;3.10;;;14.90;25.20;;;;;;5093727;28;37151;-78
2021/03/17 10:57:19;;;;;;;6.20;4.07;;;14.50;25.60;;;;;;5093581;28;40982;-78
2021/03/17 10:59:46;;;;;;;5.97;3.80;;;13.80;26.30;;;;;;5097088;28;38082;-78
2021/03/17 11:02:22;;;;;;;7.60;3.70;;;13.10;28.00;;;;;;5092811;28;37608;-78
2021/03/17 11:05:12;;;;;;;7.13;3.60;;;12.40;29.60;;;;;;5094019;28;38106;-78
2021/03/17 11:08:05;;;;;;;8.13;3.87;;;11.70;30.80;;;;;;5085309;28;40566;-78
2021/03/17 11:10:55;;;;;;;9.80;4.77;;;11.10;34.20;;;;;;5083471;28;38727;-77
2021/03/17 11:13:31;;;;;;;4.27;3.67;;;10.50;36.00;;;;;;5082731;28;37917;-78
2021/03/17 11:16:02;;;;;;;7.03;3.97;;;9.80;38.60;;;;;;5090866;28;36924;-78
2021/03/17 11:18:30;;;;;;;5.90;3.83;;;9.40;39.40;;;;;;5076987;28;39721;-76
2021/03/17 11:20:59;;;;;;;4.33;3.50;;;9.10;40.50;;;;;;5106132;27;38080;-82
2021/03/17 11:23:29;;;;;;;5.63;4.20;;;9.10;40.80;;;;;;5093546;28;38759;-80
2021/03/17 11:25:58;;;;;;;5.43;4.10;;;9.20;42.60;;;;;;5093407;28;37971;-80
2021/03/17 11:28:28;;;;;;;5.67;3.57;;;9.50;41.10;;;;;;5086341;28;39759;-80
2021/03/17 11:31:00;;;;;;;5.43;3.67;;;9.70;40.30;;;;;;5089550;28;39606;-79
2021/03/17 11:33:28;;;;;;;6.50;4.50;;;9.90;40.40;;;;;;5093393;28;38379;-80
2021/03/17 11:35:57;;;;;;;6.90;4.10;;;10.40;40.20;;;;;;5093719;28;37653;-80
2021/03/17 11:38:26;;;;;;;5.90;3.93;;;11.00;39.50;;;;;;5093748;28;40800;-81
2021/03/17 11:40:54;;;;;;;6.83;3.97;;;11.80;37.80;;;;;;5087266;28;39898;-80
2021/03/17 11:43:27;;;;;;;4.27;3.67;;;12.30;36.40;;;;;;5100743;28;36881;-80
2021/03/17 11:45:59;;;;;;;5.37;3.93;;;12.70;34.40;;;;;;5107436;28;35938;-79
2021/03/17 11:48:28;;;;;;;5.60;3.90;;;12.90;33.80;;;;;;5093305;28;39427;-79
2021/03/17 11:50:56;;;;;;;4.70;3.43;;;12.90;33.80;;;;;;5090208;28;38846;-79
2021/03/17 11:53:24;;;;;;;5.67;3.63;;;12.90;32.40;;;;;;5093720;28;37551;-80
2021/03/17 11:55:51;;;;;;;4.27;3.37;;;12.90;31.50;;;;;;5115769;27;36903;-80
2021/03/17 11:58:25;;;;;;;4.80;3.80;;;12.80;31.50;;;;;;5121899;27;39850;-80
2021/03/17 12:00:53;;;;;;;11.40;5.50;;;12.60;31.80;;;;;;5082943;28;39945;-80
2021/03/17 12:03:20;;;;;;;5.90;3.87;;;12.30;33.20;;;;;;5104310;28;37021;-80
2021/03/17 12:05:50;;;;;;;5.70;3.47;;;12.10;32.40;;;;;;5119635;27;37004;-80
2021/03/17 12:08:19;;;;;;;4.27;3.73;;;11.70;32.80;;;;;;5088017;28;39378;-80
2021/03/17 12:10:49;;;;;;;3.73;3.17;;;11.50;33.70;;;;;;5086145;28;39976;-80
2021/03/17 12:13:16;;;;;;;4.30;3.70;;;11.40;32.60;;;;;;5092447;28;36623;-81
2021/03/17 12:15:43;;;;;;;5.83;3.97;;;11.10;33.40;;;;;;5093401;28;38286;-80
2021/03/17 12:18:13;;;;;;;3.50;3.20;;;10.80;32.60;;;;;;5108968;28;39163;-80
2021/03/17 12:20:45;;;;;;;4.47;3.43;;;10.50;33.50;;;;;;5090983;28;38640;-80
2021/03/17 12:23:13;;;;;;;5.63;3.60;;;10.30;32.50;;;;;;5087678;28;36193;-80
2021/03/17 12:25:40;;;;;;;4.07;3.20;;;10.10;33.60;;;;;;5093229;28;37327;-79
2021/03/17 12:28:10;;;;;;;4.30;3.27;;;10.00;34.40;;;;;;5091958;28;38546;-79
2021/03/17 12:30:38;;;;;;;6.33;3.77;;;9.90;36.60;;;;;;5091627;28;38675;-79
2021/03/17 12:33:05;;;;;;;4.20;3.10;;;9.80;36.80;;;;;;5108705;28;36714;-79
2021/03/17 12:35:34;;;;;;;4.93;3.50;;;9.60;38.10;;;;;;5087447;28;37201;-79
2021/03/17 12:38:02;;;;;;;4.40;2.50;;;9.50;38.20;;;;;;5105725;27;38759;-79
2021/03/17 12:40:30;;;;;;;4.20;2.57;;;9.30;37.70;;;;;;5096643;28;39197;-79
2021/03/17 12:42:59;;;;;;;2.87;2.50;;;9.20;38.00;;;;;;5105334;28;37622;-79
2021/03/17 12:45:28;;;;;;;4.83;2.90;;;9.10;38.80;;;;;;5092593;28;36999;-79
2021/03/17 12:47:55;;;;;;;4.30;2.73;;;9.00;39.80;;;;;;5093347;28;39798;-79
2021/03/17 12:50:24;;;;;;;6.10;2.87;;;9.00;39.30;;;;;;5093894;28;40224;-79
2021/03/17 12:52:54;;;;;;;4.10;2.80;;;8.90;39.60;;;;;;5085695;28;38857;-79
2021/03/17 12:55:22;;;;;;;5.50;2.90;;;8.90;40.00;;;;;;5087086;28;38264;-79
2021/03/17 12:57:49;;;;;;;5.50;3.13;;;8.80;41.30;;;;;;5089166;28;40656;-79
2021/03/17 13:00:22;;;;;;;4.73;2.90;;;8.50;42.20;;;;;;5087460;28;39168;-79
2021/03/17 13:02:50;;;;;;;4.23;3.10;;;8.40;43.10;;;;;;5121104;27;36904;-78
2021/03/17 13:05:17;;;;;;;3.67;3.00;;;8.10;43.80;;;;;;5096478;28;37121;-79
2021/03/17 13:07:48;;;;;;;5.70;3.50;;;7.80;44.90;;;;;;5087966;28;38818;-79
2021/03/17 13:10:22;;;;;;;6.37;3.50;;;7.50;46.50;;;;;;5093316;28;39134;-80
2021/03/17 13:12:49;;;;;;;6.10;3.83;;;7.30;47.80;;;;;;5093355;28;38855;-80
2021/03/17 13:15:18;;;;;;;10.00;5.37;;;7.20;48.80;;;;;;5110559;28;35943;-79
2021/03/17 13:17:46;;;;;;;6.33;4.33;;;7.00;49.00;;;;;;5108068;28;39981;-80